Time;durP1;ratioP1;P1;durP2;ratioP2;P2;SDS_P1;SDS_P2;PMS_P1;PMS_P2;Temp;Humidity;BMP_temperature;BMP_pressure;BME280_temperature;BME280_humidity;BME280_pressure;Samples;Min_cycle;Max_cycle;Signal;HPM_P1;HPM_P2
2022/01/08 08:26:30;;;;;;;;;7.75;4.00;;;;;7.25;73.66;101088.19;5132828;27;45662;-61
2022/01/08 08:28:55;;;;;;;;;2.75;2.00;;;;;7.31;73.70;101080.94;5115075;27;45376;-60
2022/01/08 08:31:21;;;;;;;;;9.75;3.00;;;;;7.36;74.19;101081.66;5115609;27;45323;-60
2022/01/08 08:33:46;;;;;;;;;5.25;3.75;;;;;7.38;74.38;101077.19;5115073;27;45479;-60
2022/01/08 08:36:11;;;;;;;;;7.00;3.00;;;;;7.35;75.57;101071.03;5114941;27;46435;-60
2022/01/08 08:38:37;;;;;;;;;7.00;3.50;;;;;7.29;75.43;101066.75;5114955;27;45308;-59
2022/01/08 08:41:02;;;;;;;;;3.00;3.00;;;;;7.27;75.68;101054.38;5115167;27;45711;-60
2022/01/08 08:43:28;;;;;;;;;4.00;3.00;;;;;7.23;75.93;101056.22;5114739;27;45778;-60
2022/01/08 08:45:53;;;;;;;;;6.25;3.75;;;;;7.30;76.61;101049.84;5116194;27;45934;-59
2022/01/08 08:48:18;;;;;;;;;4.00;2.00;;;;;7.18;77.25;101037.72;5116770;27;45204;-59
2022/01/08 08:50:45;;;;;;;;;4.00;4.00;;;;;7.27;77.33;101049.03;5116749;27;45586;-58
2022/01/08 08:53:10;;;;;;;;;2.25;2.25;;;;;7.26;78.39;101036.63;5116553;27;45274;-59
2022/01/08 08:55:36;;;;;;;;;6.00;3.00;;;;;7.32;77.50;101039.09;5116251;27;46168;-60
2022/01/08 08:58:01;;;;;;;;;5.00;1.00;;;;;7.37;77.50;101039.88;5116708;27;45306;-59
2022/01/08 09:00:27;;;;;;;;;4.00;3.50;;;;;7.38;77.78;101042.50;5116457;27;45344;-59
2022/01/08 09:02:52;;;;;;;;;4.00;4.00;;;;;7.33;78.15;101035.53;5116339;27;45452;-59
2022/01/08 09:05:17;;;;;;;;;3.00;3.00;;;;;7.34;77.78;101027.50;5116377;27;46840;-59
2022/01/08 09:07:44;;;;;;;;;4.00;2.50;;;;;7.41;77.83;101026.38;5116450;27;45279;-59
2022/01/08 09:10:10;;;;;;;;;3.00;3.00;;;;;7.47;77.95;101023.56;5116566;27;45353;-60
2022/01/08 09:12:40;;;;;;;;;5.50;3.00;;;;;7.48;78.32;101016.44;5116576;27;45541;-59
2022/01/08 09:15:08;;;;;;;;;2.50;2.50;;;;;7.37;78.77;101011.41;5114735;27;47055;-59
2022/01/08 09:17:35;;;;;;;;;2.00;2.00;;;;;7.45;78.70;101014.72;5116272;27;45339;-59
2022/01/08 09:20:03;;;;;;;;;3.00;3.00;;;;;7.48;79.01;101000.44;5116073;27;45341;-59
2022/01/08 09:22:28;;;;;;;;;4.00;3.00;;;;;7.49;78.57;100988.81;5116072;27;45816;-59
2022/01/08 09:24:54;;;;;;;;;8.00;3.00;;;;;7.61;78.61;100991.16;5115709;27;45323;-58
2022/01/08 09:27:21;;;;;;;;;8.00;4.00;;;;;7.72;78.07;100999.72;5116285;27;45274;-59
2022/01/08 09:29:46;;;;;;;;;5.50;3.50;;;;;7.77;77.92;100995.09;5115367;27;45366;-60
2022/01/08 09:32:12;;;;;;;;;6.00;4.00;;;;;7.81;78.27;100994.09;5115866;27;45295;-60
2022/01/08 09:34:37;;;;;;;;;4.00;3.00;;;;;7.84;78.26;100999.31;5115664;27;46165;-59
2022/01/08 09:37:04;;;;;;;;;4.75;2.00;;;;;7.85;78.45;100998.41;5105797;27;45514;-59
2022/01/08 09:39:30;;;;;;;;;6.25;3.50;;;;;7.91;79.07;100994.69;5102363;27;45414;-61
2022/01/08 09:41:55;;;;;;;;;2.50;2.25;;;;;8.04;78.33;100990.72;5102185;27;45428;-60
2022/01/08 09:44:21;;;;;;;;;6.50;3.00;;;;;8.05;78.78;100989.78;5099708;27;46023;-61
2022/01/08 09:46:47;;;;;;;;;7.75;4.00;;;;;8.06;78.88;100979.97;5100653;27;45415;-59
2022/01/08 09:49:12;;;;;;;;;4.75;3.00;;;;;8.11;78.16;100978.91;5100572;27;45434;-61
2022/01/08 09:51:37;;;;;;;;;8.50;4.00;;;;;8.22;78.28;100967.88;5116187;27;45419;-59
2022/01/08 09:54:03;;;;;;;;;9.75;4.00;;;;;8.18;78.39;100956.41;5100029;27;46104;-59
2022/01/08 09:56:31;;;;;;;;;4.00;4.00;;;;;8.30;78.27;100957.81;5101551;27;45324;-60
2022/01/08 09:58:56;;;;;;;;;5.75;3.75;;;;;8.34;77.99;100952.34;5101602;27;45420;-60
2022/01/08 10:01:34;;;;;;;;;6.00;4.00;;;;;8.43;78.02;100945.81;5102105;27;45332;-60
2022/01/08 10:04:02;;;;;;;;;5.25;3.00;;;;;8.40;78.01;100937.94;5101671;27;46553;-61
2022/01/08 10:06:30;;;;;;;;;4.75;4.75;;;;;8.47;77.92;100926.09;5101856;27;45318;-59
2022/01/08 10:08:57;;;;;;;;;4.00;4.00;;;;;8.51;77.78;100927.72;5101830;27;45346;-60
2022/01/08 10:11:24;;;;;;;;;4.50;3.00;;;;;8.56;77.89;100919.56;5101488;27;45344;-62
2022/01/08 10:13:59;;;;;;;;;7.00;4.25;;;;;8.58;77.92;100923.06;5101092;27;45315;-63
2022/01/08 10:19:23;;;;;;;;;3.50;3.25;;;;;8.63;77.88;100913.94;5100613;27;45490;-61
2022/01/08 10:21:53;;;;;;;;;10.25;3.00;;;;;8.64;77.66;100929.06;5100651;27;45408;-61
2022/01/08 10:24:26;;;;;;;;;10.25;3.00;;;;;8.65;77.95;100908.56;5101456;27;45809;-61
2022/01/08 10:26:59;;;;;;;;;5.75;2.50;;;;;8.67;78.58;100912.94;5101405;27;45433;-61
2022/01/08 10:29:25;;;;;;;;;8.00;4.25;;;;;8.67;78.31;100902.25;5101470;27;45289;-62
2022/01/08 10:31:52;;;;;;;;;15.75;7.00;;;;;8.62;78.93;100898.84;5101121;27;45434;-62
2022/01/08 10:34:25;;;;;;;;;9.25;4.00;;;;;8.60;78.87;100890.00;5100779;27;46635;-62
2022/01/08 10:37:03;;;;;;;;;7.00;3.00;;;;;8.68;78.64;100895.06;5101346;27;45358;-62
2022/01/08 10:39:33;;;;;;;;;5.75;3.75;;;;;8.65;79.15;100881.84;5101499;27;45356;-63
2022/01/08 10:42:02;;;;;;;;;7.50;4.75;;;;;8.59;79.35;100885.56;5101215;27;45866;-62
2022/01/08 10:44:30;;;;;;;;;7.50;5.25;;;;;8.62;79.28;100885.47;5100700;27;45316;-62
2022/01/08 10:47:06;;;;;;;;;7.75;4.25;;;;;8.62;79.38;100872.13;5101317;27;45351;-62
2022/01/08 10:49:43;;;;;;;;;4.00;4.00;;;;;8.60;79.74;100863.28;5100133;27;45328;-62
2022/01/08 10:52:14;;;;;;;;;6.00;3.75;;;;;8.54;80.23;100849.25;5101074;27;45288;-62
2022/01/08 10:54:41;;;;;;;;;5.25;4.00;;;;;8.51;80.31;100860.91;5101059;27;45359;-62
2022/01/08 10:57:09;;;;;;;;;7.50;4.00;;;;;8.54;79.87;100835.91;5101010;27;45356;-62
2022/01/08 10:59:36;;;;;;;;;8.00;2.00;;;;;8.49;80.50;100828.06;5101126;27;45357;-62
2022/01/08 11:02:13;;;;;;;;;7.00;4.50;;;;;8.52;80.56;100816.38;5100865;27;45468;-61
2022/01/08 11:04:46;;;;;;;;;9.50;4.00;;;;;8.52;80.38;100816.38;5100626;27;45571;-60
2022/01/08 11:07:20;;;;;;;;;9.00;4.00;;;;;8.52;80.04;100803.88;5100648;27;45460;-61
2022/01/08 11:09:47;;;;;;;;;4.50;3.25;;;;;8.47;80.51;100803.19;5100997;27;45441;-61
2022/01/08 11:12:28;;;;;;;;;9.50;4.00;;;;;8.47;80.61;100797.84;5100443;27;45426;-60
2022/01/08 11:15:12;;;;;;;;;4.75;2.00;;;;;8.51;80.78;100782.56;5100139;27;46955;-61
2022/01/08 11:17:41;;;;;;;;;3.75;3.00;;;;;8.52;80.28;100770.94;5116522;27;45350;-61
2022/01/08 11:20:10;;;;;;;;;9.75;8.00;;;;;8.54;80.00;100775.31;5100726;27;45463;-60
2022/01/08 11:22:39;;;;;;;;;6.00;2.25;;;;;8.56;80.10;100769.94;5100448;27;45436;-61
2022/01/08 11:25:13;;;;;;;;;2.75;2.75;;;;;8.56;79.79;100761.91;5099948;27;45944;-60
2022/01/08 11:28:15;;;;;;;;;4.75;2.50;;;;;8.60;80.32;100751.03;5100024;27;45345;-61
2022/01/08 11:30:43;;;;;;;;;4.50;3.50;;;;;8.62;80.25;100751.84;5099995;27;45393;-62
2022/01/08 11:33:13;;;;;;;;;5.75;3.75;;;;;8.65;79.86;100743.72;5100056;27;46197;-62
2022/01/08 11:35:40;;;;;;;;;8.25;3.75;;;;;8.68;80.16;100740.06;5100283;27;46217;-61
2022/01/08 11:38:08;;;;;;;;;4.75;4.25;;;;;8.70;79.82;100724.84;5099436;27;45571;-61
2022/01/08 11:40:36;;;;;;;;;4.00;3.50;;;;;8.73;79.74;100712.25;5100335;27;45337;-61
2022/01/08 11:43:03;;;;;;;;;4.00;2.00;;;;;8.73;79.90;100708.69;5100049;27;45377;-61
2022/01/08 11:45:32;;;;;;;;;3.25;3.00;;;;;8.64;79.20;100696.56;5099801;27;47154;-60
2022/01/08 11:47:58;;;;;;;;;6.25;3.00;;;;;8.63;80.22;100692.13;5100079;27;45332;-60
2022/01/08 11:50:29;;;;;;;;;7.75;2.75;;;;;8.71;79.84;100686.50;5100170;27;45196;-60
2022/01/08 11:53:27;;;;;;;;;8.75;3.75;;;;;8.74;79.76;100667.69;5100216;27;45430;-60
2022/01/08 11:55:58;;;;;;;;;3.00;3.00;;;;;8.68;79.74;100654.53;5097013;27;46790;-60
2022/01/08 11:58:34;;;;;;;;;10.50;4.25;;;;;8.69;80.02;100649.13;5099817;27;45315;-60
2022/01/08 12:01:18;;;;;;;;;10.25;4.00;;;;;8.66;80.36;100635.03;5099749;27;45310;-61
2022/01/08 12:03:51;;;;;;;;;9.25;3.50;;;;;8.69;79.86;100627.75;5099719;27;45372;-60
2022/01/08 12:06:28;;;;;;;;;4.75;3.50;;;;;8.67;79.31;100612.72;5099702;27;46222;-60
2022/01/08 12:09:10;;;;;;;;;4.00;3.00;;;;;8.66;79.13;100622.56;5099933;27;45274;-60
2022/01/08 12:11:35;;;;;;;;;10.00;2.50;;;;;8.67;79.30;100597.56;5098963;27;45428;-60
2022/01/08 12:14:08;;;;;;;;;3.75;2.25;;;;;8.69;79.50;100587.66;5098961;27;45246;-60
2022/01/08 12:16:36;;;;;;;;;5.25;3.00;;;;;8.72;80.08;100570.63;5099539;27;45487;-60
2022/01/08 12:19:04;;;;;;;;;7.00;3.00;;;;;8.73;80.03;100567.91;5099728;27;45721;-60
2022/01/08 12:21:39;;;;;;;;;5.75;3.00;;;;;8.67;79.69;100538.78;5098521;27;45382;-60
2022/01/08 12:24:34;;;;;;;;;9.50;3.75;;;;;8.80;79.80;100551.63;5099270;27;45406;-60
2022/01/08 12:27:03;;;;;;;;;5.00;1.00;;;;;8.78;79.61;100532.09;5090472;27;46154;-59
2022/01/08 12:29:34;;;;;;;;;7.50;4.50;;;;;8.80;79.77;100508.84;5099171;27;45227;-59
2022/01/08 12:32:58;;;;;;;;;5.25;4.50;;;;;8.85;79.59;100504.16;5099798;27;45422;-61
2022/01/08 12:35:17;;;;;;;;;9.75;4.00;;;;;8.86;79.83;100493.41;5098876;27;45406;-60
2022/01/08 12:37:45;;;;;;;;;5.25;4.00;;;;;8.78;79.48;100465.28;5099208;27;45350;-60
2022/01/08 12:40:30;;;;;;;;;6.50;3.00;;;;;8.91;79.35;100469.16;5099539;27;45576;-59
2022/01/08 12:42:56;;;;;;;;;6.75;3.00;;;;;8.89;79.52;100460.34;5099572;27;45448;-60
2022/01/08 12:45:33;;;;;;;;;6.00;2.00;;;;;8.93;79.23;100462.78;5099134;27;45430;-60
2022/01/08 12:48:04;;;;;;;;;7.25;4.00;;;;;8.92;79.61;100446.84;5085613;27;46358;-60
2022/01/08 12:50:42;;;;;;;;;6.00;4.00;;;;;8.91;79.24;100435.28;5099389;27;45414;-60
2022/01/08 12:53:08;;;;;;;;;11.25;5.00;;;;;8.90;79.65;100430.88;5099249;27;45353;-60
2022/01/08 12:56:02;;;;;;;;;8.50;4.00;;;;;8.94;79.95;100423.56;5099139;27;45904;-60
2022/01/08 12:58:57;;;;;;;;;7.25;2.00;;;;;8.95;79.17;100415.47;5114852;27;48257;-59
2022/01/08 13:01:24;;;;;;;;;8.00;4.25;;;;;8.96;78.92;100408.34;5090213;27;45402;-59
2022/01/08 13:03:56;;;;;;;;;7.75;3.75;;;;;8.96;79.34;100409.19;5099361;27;45270;-59
2022/01/08 13:06:25;;;;;;;;;4.75;3.75;;;;;8.91;79.21;100386.28;5099015;27;45552;-60
2022/01/08 13:08:52;;;;;;;;;7.00;3.75;;;;;8.95;79.21;100375.38;5098787;27;46387;-60
2022/01/08 13:11:23;;;;;;;;;4.00;3.00;;;;;8.94;79.25;100362.06;5099846;27;45226;-59
2022/01/08 13:13:53;;;;;;;;;4.00;2.50;;;;;8.92;79.41;100372.88;5102507;27;45385;-59
2022/01/08 13:16:36;;;;;;;;;8.50;3.00;;;;;8.89;80.30;100362.28;5102561;27;46244;-60
2022/01/08 13:19:15;;;;;;;;;7.75;3.75;;;;;8.92;79.80;100359.50;5102428;27;46978;-60
2022/01/08 13:21:56;;;;;;;;;3.00;0.50;;;;;8.92;80.12;100316.72;5102535;27;45355;-59
2022/01/08 13:24:21;;;;;;;;;2.00;2.00;;;;;8.94;80.04;100321.97;5102437;27;45318;-60
2022/01/08 13:27:04;;;;;;;;;4.75;2.00;;;;;9.00;79.18;100313.69;5101015;27;45419;-59
2022/01/08 13:29:38;;;;;;;;;3.50;3.00;;;;;8.98;79.88;100304.88;5100503;27;45735;-58
2022/01/08 13:32:13;;;;;;;;;7.50;2.00;;;;;8.97;79.50;100287.09;5100582;27;45358;-59
2022/01/08 13:34:57;;;;;;;;;6.25;3.00;;;;;9.01;79.68;100278.00;5099280;27;45256;-60
2022/01/08 13:37:24;;;;;;;;;7.00;4.25;;;;;9.08;79.88;100276.78;5102186;27;45436;-61
2022/01/08 13:39:57;;;;;;;;;4.00;2.50;;;;;9.05;79.82;100263.53;5101566;27;45396;-60
2022/01/08 13:42:31;;;;;;;;;3.50;1.25;;;;;9.05;79.41;100261.72;5102065;27;45546;-60
2022/01/08 13:45:03;;;;;;;;;4.00;2.50;;;;;9.10;79.91;100261.53;5102118;27;45343;-59
2022/01/08 13:47:43;;;;;;;;;2.00;2.00;;;;;9.04;80.03;100246.63;5101959;27;45353;-59
2022/01/08 13:50:17;;;;;;;;;3.25;3.25;;;;;8.91;80.74;100228.56;5102283;27;45388;-59
2022/01/08 13:52:47;;;;;;;;;3.50;3.50;;;;;8.97;81.11;100226.47;5101333;27;45470;-59
2022/01/08 13:55:26;;;;;;;;;3.00;2.00;;;;;8.99;80.93;100224.59;5102088;27;45287;-59
2022/01/08 13:58:28;;;;;;;;;6.00;1.50;;;;;8.99;80.83;100221.06;5102200;27;45369;-59
2022/01/08 14:01:06;;;;;;;;;3.75;1.50;;;;;8.93;80.92;100235.56;5101062;27;45259;-63
2022/01/08 14:03:39;;;;;;;;;2.75;2.00;;;;;8.99;80.45;100203.22;5101982;27;45263;-62
2022/01/08 14:06:04;;;;;;;;;4.25;3.00;;;;;9.02;80.87;100178.97;5101936;27;45395;-60
2022/01/08 14:08:31;;;;;;;;;7.25;2.50;;;;;9.04;81.28;100173.56;5101499;27;45275;-61
2022/01/08 14:11:02;;;;;;;;;9.25;4.00;;;;;8.89;80.56;100151.13;5101800;27;46688;-61
2022/01/08 14:13:30;;;;;;;;;3.00;1.25;;;;;9.02;80.86;100154.03;5101690;27;45318;-60
2022/01/08 14:16:09;;;;;;;;;3.00;2.00;;;;;9.02;81.07;100143.34;5101699;27;45364;-61
2022/01/08 14:18:35;;;;;;;;;3.25;1.75;;;;;8.99;81.26;100136.38;5101648;27;46126;-62
2022/01/08 14:21:18;;;;;;;;;7.25;2.25;;;;;9.07;80.71;100125.28;5101794;27;45333;-61
2022/01/08 14:23:45;;;;;;;;;4.25;1.00;;;;;9.08;80.56;100122.56;5101521;27;45392;-61
2022/01/08 14:26:20;;;;;;;;;1.50;1.50;;;;;9.06;80.93;100107.50;5101057;27;45393;-62
2022/01/08 14:29:17;;;;;;;;;2.50;1.00;;;;;9.06;80.41;100096.81;5101406;27;46348;-62
2022/01/08 14:31:53;;;;;;;;;3.50;1.75;;;;;9.03;80.72;100080.91;5074463;27;46439;-62
2022/01/08 14:34:21;;;;;;;;;3.00;1.75;;;;;9.02;80.24;100080.06;5101505;27;45258;-61
2022/01/08 14:36:59;;;;;;;;;4.00;2.00;;;;;9.03;80.20;100065.75;5101460;27;45301;-60
2022/01/08 14:39:30;;;;;;;;;4.75;2.00;;;;;9.07;80.71;100059.31;5099928;27;46045;-61
2022/01/08 14:41:57;;;;;;;;;2.75;1.50;;;;;9.05;80.09;100046.94;5101151;27;45346;-62
2022/01/08 14:44:24;;;;;;;;;2.50;1.00;;;;;9.09;80.13;100044.06;5099369;27;45389;-62
2022/01/08 14:46:50;;;;;;;;;3.00;1.25;;;;;9.07;80.76;100027.22;5101427;27;45384;-61
2022/01/08 14:49:16;;;;;;;;;2.00;2.00;;;;;9.02;80.12;100002.50;5101081;27;45440;-61
2022/01/08 14:51:42;;;;;;;;;3.50;3.50;;;;;9.04;79.82;99999.78;5100940;27;45392;-61
2022/01/08 14:54:08;;;;;;;;;4.75;2.25;;;;;9.07;79.52;99973.75;5100875;27;45329;-61
2022/01/08 14:56:39;;;;;;;;;4.25;1.50;;;;;9.10;80.04;99976.25;5101373;27;45464;-61
2022/01/08 14:59:05;;;;;;;;;3.50;2.00;;;;;9.10;79.72;99970.91;5100584;27;45313;-60
2022/01/08 15:01:31;;;;;;;;;4.25;2.50;;;;;9.10;79.61;99964.72;5100900;27;46210;-62
2022/01/08 15:03:58;;;;;;;;;4.00;2.00;;;;;9.11;80.01;99937.88;5100833;27;45456;-62
2022/01/08 15:06:24;;;;;;;;;3.00;1.00;;;;;9.07;79.45;99925.63;5100989;27;45278;-61
2022/01/08 15:08:49;;;;;;;;;9.50;1.75;;;;;9.08;79.93;99918.47;5100583;27;45692;-61
2022/01/08 15:11:14;;;;;;;;;4.00;3.00;;;;;9.10;80.11;99913.91;5100877;27;46207;-62
2022/01/08 15:13:40;;;;;;;;;4.75;3.00;;;;;9.14;80.18;99912.78;5100458;27;45447;-61
2022/01/08 15:16:08;;;;;;;;;4.50;3.00;;;;;9.08;80.00;99889.94;5100903;27;45244;-61
2022/01/08 15:18:35;;;;;;;;;2.00;1.25;;;;;9.01;79.48;99863.59;5100530;27;45431;-61
2022/01/08 15:21:01;;;;;;;;;3.00;2.00;;;;;9.16;79.26;99883.28;5100649;27;45463;-61
2022/01/08 15:23:26;;;;;;;;;1.25;1.00;;;;;9.16;79.41;99870.78;5100174;27;45293;-60
2022/01/08 15:25:51;;;;;;;;;0.00;0.00;;;;;9.11;78.55;99862.13;5100485;27;45332;-61
2022/01/08 15:28:17;;;;;;;;;2.50;1.00;;;;;9.08;79.00;99846.28;5100327;27;45247;-60
2022/01/08 15:30:42;;;;;;;;;3.00;1.00;;;;;9.17;78.82;99837.75;5100152;27;45365;-60
2022/01/08 15:33:08;;;;;;;;;2.00;1.00;;;;;9.15;78.65;99834.31;5100521;27;45226;-61
2022/01/08 15:35:33;;;;;;;;;3.25;2.75;;;;;9.17;78.70;99813.69;5099816;27;45332;-60
2022/01/08 15:37:58;;;;;;;;;1.75;1.00;;;;;9.21;78.85;99814.38;5100035;27;45481;-60
2022/01/08 15:40:24;;;;;;;;;1.75;1.00;;;;;9.18;79.12;99795.84;5100278;27;45917;-60
2022/01/08 15:42:50;;;;;;;;;2.75;1.00;;;;;9.16;78.86;99801.28;5099973;27;45448;-60
2022/01/08 15:45:15;;;;;;;;;2.75;1.00;;;;;9.14;79.66;99788.91;5100061;27;45455;-61
2022/01/08 15:47:41;;;;;;;;;2.75;1.00;;;;;9.15;79.59;99777.28;5100108;27;45431;-62
2022/01/08 15:50:07;;;;;;;;;2.75;1.00;;;;;9.18;79.70;99766.44;5100225;27;46450;-61
2022/01/08 15:52:32;;;;;;;;;1.00;1.00;;;;;9.20;78.96;99751.13;5099968;27;45299;-60
2022/01/08 15:54:57;;;;;;;;;1.25;1.00;;;;;9.18;79.56;99734.34;5100239;27;45421;-60
2022/01/08 15:57:23;;;;;;;;;4.25;2.75;;;;;9.20;80.23;99730.59;5099997;27;45298;-60
2022/01/08 15:59:48;;;;;;;;;5.00;2.00;;;;;9.23;80.05;99727.78;5099699;27;45309;-60
2022/01/08 16:02:13;;;;;;;;;2.75;1.75;;;;;9.18;80.03;99699.56;5099976;27;45311;-60
2022/01/08 16:04:39;;;;;;;;;2.00;2.00;;;;;9.16;79.91;99690.78;5099985;27;45390;-61
2022/01/08 16:07:06;;;;;;;;;1.75;0.00;;;;;9.11;80.60;99704.38;5099740;27;45482;-61
2022/01/08 16:09:31;;;;;;;;;1.75;0.25;;;;;9.06;80.35;99682.41;5099847;27;47521;-60
2022/01/08 16:11:57;;;;;;;;;1.00;1.00;;;;;9.05;81.22;99678.88;5099894;27;45377;-61
2022/01/08 16:14:22;;;;;;;;;1.00;1.00;;;;;9.03;81.17;99675.41;5099715;27;45334;-61
2022/01/08 16:16:48;;;;;;;;;2.00;1.00;;;;;9.02;81.29;99668.34;5099781;27;45358;-61
2022/01/08 16:19:14;;;;;;;;;2.25;0.25;;;;;9.06;81.49;99661.88;5099441;27;46013;-61
2022/01/08 16:21:39;;;;;;;;;1.00;1.00;;;;;9.03;81.51;99650.50;5099534;27;45332;-60
2022/01/08 16:24:04;;;;;;;;;0.75;0.75;;;;;9.00;81.75;99651.53;5099378;27;45381;-61
2022/01/08 16:26:30;;;;;;;;;4.00;1.75;;;;;8.95;82.33;99637.56;5099420;27;45337;-61
2022/01/08 16:28:55;;;;;;;;;1.00;1.00;;;;;8.94;82.18;99627.81;5099273;27;46093;-60
2022/01/08 16:31:23;;;;;;;;;1.25;0.50;;;;;8.99;81.70;99622.22;5099281;27;45337;-60
2022/01/08 16:33:54;;;;;;;;;3.00;0.25;;;;;9.02;82.13;99622.88;5099791;27;45553;-61
2022/01/08 16:36:21;;;;;;;;;1.75;1.00;;;;;9.01;82.26;99596.28;5099479;27;45265;-60
2022/01/08 16:38:46;;;;;;;;;2.25;1.00;;;;;9.08;82.44;99619.03;5099250;27;45267;-60
2022/01/08 16:41:12;;;;;;;;;1.00;1.00;;;;;9.08;82.77;99609.19;5099414;27;45256;-64
2022/01/08 16:43:38;;;;;;;;;1.00;1.00;;;;;9.09;82.17;99578.84;5099001;27;45391;-60
2022/01/08 16:46:08;;;;;;;;;3.50;1.00;;;;;9.11;82.51;99578.72;5099167;27;45401;-60
2022/01/08 16:48:34;;;;;;;;;1.00;1.00;;;;;9.05;82.72;99563.03;5103058;27;45545;-59
2022/01/08 16:51:00;;;;;;;;;0.25;0.25;;;;;9.05;82.13;99555.03;5102976;27;45230;-60
2022/01/08 16:53:26;;;;;;;;;1.25;1.00;;;;;9.02;82.63;99548.03;5103051;27;45250;-60
2022/01/08 16:55:52;;;;;;;;;0.75;0.75;;;;;9.07;82.41;99537.94;5102926;27;45272;-60
2022/01/08 16:58:18;;;;;;;;;1.25;0.75;;;;;9.11;82.60;99527.91;5103081;27;45533;-60
2022/01/08 17:00:43;;;;;;;;;0.00;0.00;;;;;9.05;82.98;99510.44;5102698;27;45377;-60
2022/01/08 17:03:09;;;;;;;;;1.75;1.00;;;;;9.11;83.47;99518.09;5103188;27;45315;-60
2022/01/08 17:05:40;;;;;;;;;1.75;1.00;;;;;9.09;83.33;99522.69;5102582;27;45474;-61
2022/01/08 17:08:07;;;;;;;;;1.00;1.00;;;;;9.09;83.58;99498.63;5102648;27;45329;-60
2022/01/08 17:10:32;;;;;;;;;1.75;1.00;;;;;9.14;83.53;99495.66;5102469;27;45193;-60
2022/01/08 17:12:58;;;;;;;;;1.75;1.75;;;;;9.12;82.88;99484.19;5103003;27;45383;-60
2022/01/08 17:15:24;;;;;;;;;3.00;1.00;;;;;9.12;83.09;99473.50;5102179;27;45533;-61
2022/01/08 17:17:51;;;;;;;;;2.00;1.00;;;;;9.13;84.00;99453.84;5102597;27;46305;-60
2022/01/08 17:20:18;;;;;;;;;2.00;1.00;;;;;9.14;83.50;99441.31;5102704;27;45383;-60
2022/01/08 17:22:43;;;;;;;;;0.75;0.75;;;;;9.14;83.43;99426.16;5102788;27;45261;-60
2022/01/08 17:25:09;;;;;;;;;0.75;0.75;;;;;9.17;83.22;99422.44;5102302;27;47169;-60
2022/01/08 17:27:35;;;;;;;;;1.25;0.75;;;;;9.16;83.20;99421.56;5102328;27;45314;-60
2022/01/08 17:30:00;;;;;;;;;3.25;1.00;;;;;9.16;83.26;99394.84;5101745;27;45341;-60
2022/01/08 17:32:26;;;;;;;;;2.50;0.00;;;;;9.18;83.78;99400.09;5102483;27;45335;-60
2022/01/08 17:34:51;;;;;;;;;0.00;0.00;;;;;9.18;83.49;99389.41;5102212;27;45275;-61
2022/01/08 17:37:17;;;;;;;;;2.25;1.00;;;;;9.18;84.16;99381.38;5102555;27;45454;-61
2022/01/08 17:39:46;;;;;;;;;0.25;0.25;;;;;9.26;83.75;99382.63;5102204;27;45402;-61
2022/01/08 17:42:12;;;;;;;;;2.00;1.00;;;;;9.28;83.88;99372.66;5102565;27;45349;-61
2022/01/08 17:44:38;;;;;;;;;2.00;1.00;;;;;9.24;83.67;99375.66;5101822;27;45935;-61
2022/01/08 17:47:03;;;;;;;;;2.00;1.00;;;;;9.26;84.56;99369.25;5102181;27;46453;-61
2022/01/08 17:49:32;;;;;;;;;1.75;1.75;;;;;9.32;84.08;99362.66;5102183;27;45583;-61
2022/01/08 17:51:58;;;;;;;;;1.00;1.00;;;;;9.27;84.00;99360.25;5102214;27;45431;-60
2022/01/08 17:54:23;;;;;;;;;2.50;1.00;;;;;9.23;84.06;99344.50;5101880;27;45524;-61
2022/01/08 17:56:49;;;;;;;;;0.75;0.75;;;;;9.24;83.19;99349.75;5101894;27;45429;-60
2022/01/08 17:59:14;;;;;;;;;1.50;1.50;;;;;9.30;83.68;99362.75;5101447;27;45362;-60
2022/01/08 18:01:39;;;;;;;;;0.25;0.25;;;;;9.32;83.50;99342.13;5102289;27;45305;-60
2022/01/08 18:04:05;;;;;;;;;0.50;0.50;;;;;9.34;82.95;99345.56;5101906;27;45348;-60
2022/01/08 18:06:32;;;;;;;;;0.25;0.25;;;;;9.37;82.85;99366.75;5101714;27;45460;-61
2022/01/08 18:08:58;;;;;;;;;0.25;0.25;;;;;9.35;83.71;99362.47;5101685;27;45255;-63
2022/01/08 18:11:23;;;;;;;;;0.00;0.00;;;;;9.37;83.00;99363.22;5101861;27;45390;-59
2022/01/08 18:13:49;;;;;;;;;0.50;0.25;;;;;9.40;82.96;99338.97;5101573;27;45231;-60
2022/01/08 18:16:14;;;;;;;;;0.75;0.00;;;;;9.38;81.31;99314.13;5101605;27;46716;-61
2022/01/08 18:18:40;;;;;;;;;0.25;0.25;;;;;9.41;80.81;99316.59;5101578;27;45199;-59
2022/01/08 18:21:05;;;;;;;;;0.00;0.00;;;;;9.38;79.74;99314.97;5101744;27;45338;-60
2022/01/08 18:23:30;;;;;;;;;2.50;1.00;;;;;9.43;79.90;99295.97;5101354;27;45246;-60
2022/01/08 18:25:56;;;;;;;;;1.75;1.00;;;;;9.45;79.94;99289.53;5117107;27;46249;-60
2022/01/08 18:28:21;;;;;;;;;0.00;0.00;;;;;9.46;79.15;99279.72;5101493;27;45236;-60
2022/01/08 18:30:46;;;;;;;;;1.25;1.25;;;;;9.38;77.89;99277.53;5101654;27;45314;-60
2022/01/08 18:33:12;;;;;;;;;0.50;0.25;;;;;9.36;76.18;99259.84;5101533;27;45496;-60
2022/01/08 18:35:37;;;;;;;;;1.00;0.00;;;;;9.31;75.88;99294.94;5101612;27;45305;-60
2022/01/08 18:38:03;;;;;;;;;0.25;0.25;;;;;9.35;75.39;99279.56;5101235;27;45549;-60
2022/01/08 18:40:29;;;;;;;;;3.50;3.50;;;;;9.36;75.59;99302.66;5101736;27;45382;-60
2022/01/08 18:42:55;;;;;;;;;2.75;2.75;;;;;9.36;76.64;99279.44;5101114;27;45301;-59
2022/01/08 18:45:22;;;;;;;;;1.00;0.00;;;;;9.29;76.23;99272.78;5101228;27;46325;-60
2022/01/08 18:47:48;;;;;;;;;2.00;1.00;;;;;9.23;75.84;99258.94;5101428;27;45388;-62
2022/01/08 18:50:14;;;;;;;;;1.00;1.00;;;;;9.13;76.33;99258.66;5101392;27;45334;-60
2022/01/08 18:52:41;;;;;;;;;1.00;1.00;;;;;9.11;75.96;99228.50;5100815;27;45451;-61
2022/01/08 18:55:11;;;;;;;;;2.00;1.00;;;;;9.10;76.00;99224.13;5100967;27;47174;-61
2022/01/08 18:57:37;;;;;;;;;4.25;3.25;;;;;9.09;74.31;99220.59;5101038;27;45557;-59
2022/01/08 19:00:05;;;;;;;;;2.75;2.75;;;;;9.04;74.42;99209.31;5101171;27;45361;-61
2022/01/08 19:02:30;;;;;;;;;1.00;1.00;;;;;9.10;74.78;99213.44;5100738;27;46446;-61
2022/01/08 19:04:55;;;;;;;;;2.25;2.00;;;;;9.12;74.07;99211.50;5100827;27;45374;-60
2022/01/08 19:07:20;;;;;;;;;8.25;2.75;;;;;9.09;74.11;99198.34;5100537;27;45365;-58
2022/01/08 19:09:46;;;;;;;;;10.00;8.00;;;;;9.08;74.55;99205.50;5099969;27;45458;-60
2022/01/08 19:12:12;;;;;;;;;5.00;4.00;;;;;9.02;74.38;99195.19;5100726;27;45329;-61
2022/01/08 19:14:37;;;;;;;;;1.50;1.50;;;;;8.97;74.11;99202.66;5100359;27;46830;-61
2022/01/08 19:17:04;;;;;;;;;2.75;1.75;;;;;8.96;74.24;99190.25;5100855;27;45431;-60
2022/01/08 19:19:30;;;;;;;;;2.50;2.50;;;;;8.81;74.66;99168.97;5100980;27;45417;-59
2022/01/08 19:21:55;;;;;;;;;4.00;2.50;;;;;8.93;74.29;99214.47;5100557;27;46066;-60
2022/01/08 19:24:21;;;;;;;;;8.50;4.00;;;;;8.90;75.16;99179.94;5100425;27;45442;-58
2022/01/08 19:26:46;;;;;;;;;3.00;1.75;;;;;8.92;75.15;99187.88;5100307;27;45332;-57
2022/01/08 19:29:12;;;;;;;;;2.75;2.75;;;;;8.92;74.50;99178.03;5100435;27;45327;-59
2022/01/08 19:31:40;;;;;;;;;4.50;4.50;;;;;8.86;74.14;99161.53;5100329;27;45736;-58
2022/01/08 19:34:06;;;;;;;;;5.50;3.00;;;;;8.89;74.02;99180.91;5100422;27;46468;-59
2022/01/08 19:36:32;;;;;;;;;5.25;2.00;;;;;8.91;74.19;99173.66;5100668;27;45327;-58
2022/01/08 19:38:58;;;;;;;;;2.25;2.25;;;;;8.89;74.26;99164.88;5116637;27;45276;-59
2022/01/08 19:41:24;;;;;;;;;1.00;1.00;;;;;8.89;74.08;99166.69;5100640;27;45375;-59
2022/01/08 19:43:50;;;;;;;;;6.50;5.00;;;;;8.84;74.46;99153.63;5098979;27;47148;-59
2022/01/08 19:46:16;;;;;;;;;3.50;2.75;;;;;8.88;73.93;99163.16;5100324;27;45387;-59
2022/01/08 19:48:41;;;;;;;;;2.00;2.00;;;;;8.93;72.93;99168.22;5100375;27;45316;-58
2022/01/08 19:51:07;;;;;;;;;4.00;3.00;;;;;8.93;72.94;99169.03;5100156;27;45402;-60
2022/01/08 19:53:33;;;;;;;;;2.25;2.25;;;;;8.93;73.21;99173.56;5100137;27;46415;-59
2022/01/08 19:55:58;;;;;;;;;3.00;1.25;;;;;8.96;73.52;99157.31;5100003;27;45239;-59
2022/01/08 19:58:24;;;;;;;;;3.00;2.75;;;;;9.02;73.08;99170.25;5100165;27;45578;-59
2022/01/08 20:00:49;;;;;;;;;0.25;0.00;;;;;8.98;72.11;99166.94;5100207;27;45345;-59
2022/01/08 20:03:15;;;;;;;;;5.00;2.75;;;;;8.93;71.42;99185.06;5100068;27;45405;-59
2022/01/08 20:05:40;;;;;;;;;4.25;1.00;;;;;8.96;72.01;99165.31;5099962;27;45322;-60
2022/01/08 20:08:06;;;;;;;;;6.75;2.00;;;;;8.92;70.72;99159.34;5100070;27;45344;-59
2022/01/08 20:10:32;;;;;;;;;5.25;5.25;;;;;8.93;71.36;99149.50;5115714;27;45510;-58
2022/01/08 20:12:59;;;;;;;;;4.25;4.25;;;;;8.96;71.25;99160.84;5099856;27;46198;-59